sensor_id;sensor_type;location;lat;lon;timestamp;P1;durP1;ratioP1;P2;durP2;ratioP2
11498;SDS011;5806;48.748;9.278;2023-04-29T00:01:36;12.50;;;9.97;;
11498;SDS011;5806;48.748;9.278;2023-04-29T00:04:03;14.37;;;11.20;;
11498;SDS011;5806;48.748;9.278;2023-04-29T00:06:31;12.97;;;10.00;;
11498;SDS011;5806;48.748;9.278;2023-04-29T00:08:59;14.60;;;10.97;;
11498;SDS011;5806;48.748;9.278;2023-04-29T00:11:26;14.67;;;10.93;;
11498;SDS011;5806;48.748;9.278;2023-04-29T00:13:55;14.10;;;10.50;;
11498;SDS011;5806;48.748;9.278;2023-04-29T00:16:23;13.00;;;10.50;;
11498;SDS011;5806;48.748;9.278;2023-04-29T00:18:50;13.00;;;9.67;;
11498;SDS011;5806;48.748;9.278;2023-04-29T00:21:17;12.80;;;9.70;;
11498;SDS011;5806;48.748;9.278;2023-04-29T00:23:45;12.07;;;9.27;;
11498;SDS011;5806;48.748;9.278;2023-04-29T00:26:12;12.03;;;8.67;;
11498;SDS011;5806;48.748;9.278;2023-04-29T00:28:40;10.57;;;8.90;;
11498;SDS011;5806;48.748;9.278;2023-04-29T00:31:07;9.67;;;8.33;;
11498;SDS011;5806;48.748;9.278;2023-04-29T00:33:35;10.87;;;7.80;;
11498;SDS011;5806;48.748;9.278;2023-04-29T00:36:04;12.00;;;8.53;;
11498;SDS011;5806;48.748;9.278;2023-04-29T00:38:33;10.90;;;8.20;;
11498;SDS011;5806;48.748;9.278;2023-04-29T00:41:00;9.47;;;7.77;;
11498;SDS011;5806;48.748;9.278;2023-04-29T00:43:29;10.83;;;8.10;;
11498;SDS011;5806;48.748;9.278;2023-04-29T00:45:57;10.57;;;8.00;;
11498;SDS011;5806;48.748;9.278;2023-04-29T00:48:24;11.60;;;8.60;;
11498;SDS011;5806;48.748;9.278;2023-04-29T00:50:52;10.97;;;8.93;;
11498;SDS011;5806;48.748;9.278;2023-04-29T00:53:19;11.60;;;9.03;;
11498;SDS011;5806;48.748;9.278;2023-04-29T00:55:48;12.20;;;8.57;;
11498;SDS011;5806;48.748;9.278;2023-04-29T00:58:17;11.93;;;9.33;;
11498;SDS011;5806;48.748;9.278;2023-04-29T01:00:45;12.73;;;9.50;;
11498;SDS011;5806;48.748;9.278;2023-04-29T01:03:14;11.80;;;9.77;;
11498;SDS011;5806;48.748;9.278;2023-04-29T01:05:41;12.73;;;9.33;;
11498;SDS011;5806;48.748;9.278;2023-04-29T01:10:52;13.87;;;9.70;;
11498;SDS011;5806;48.748;9.278;2023-04-29T01:16:06;13.07;;;9.30;;
11498;SDS011;5806;48.748;9.278;2023-04-29T01:18:40;16.63;;;10.33;;
11498;SDS011;5806;48.748;9.278;2023-04-29T01:21:10;15.87;;;10.47;;
11498;SDS011;5806;48.748;9.278;2023-04-29T01:23:38;15.30;;;11.57;;
11498;SDS011;5806;48.748;9.278;2023-04-29T01:26:05;17.07;;;11.80;;
11498;SDS011;5806;48.748;9.278;2023-04-29T01:28:45;18.87;;;11.27;;
11498;SDS011;5806;48.748;9.278;2023-04-29T01:34:11;16.37;;;12.07;;
11498;SDS011;5806;48.748;9.278;2023-04-29T01:37:06;18.03;;;13.10;;
11498;SDS011;5806;48.748;9.278;2023-04-29T01:42:44;20.97;;;15.10;;
11498;SDS011;5806;48.748;9.278;2023-04-29T01:45:22;22.53;;;16.20;;
11498;SDS011;5806;48.748;9.278;2023-04-29T01:47:53;22.83;;;15.73;;
11498;SDS011;5806;48.748;9.278;2023-04-29T01:50:21;24.17;;;17.03;;
11498;SDS011;5806;48.748;9.278;2023-04-29T01:52:48;27.00;;;18.10;;
11498;SDS011;5806;48.748;9.278;2023-04-29T01:55:16;23.43;;;17.90;;
11498;SDS011;5806;48.748;9.278;2023-04-29T01:57:44;27.50;;;20.47;;
11498;SDS011;5806;48.748;9.278;2023-04-29T02:00:11;30.07;;;20.87;;
11498;SDS011;5806;48.748;9.278;2023-04-29T02:02:39;32.43;;;23.27;;
11498;SDS011;5806;48.748;9.278;2023-04-29T02:05:07;31.37;;;23.20;;
11498;SDS011;5806;48.748;9.278;2023-04-29T02:07:35;35.23;;;24.73;;
11498;SDS011;5806;48.748;9.278;2023-04-29T02:10:03;35.97;;;24.63;;
11498;SDS011;5806;48.748;9.278;2023-04-29T02:12:31;36.17;;;23.63;;
11498;SDS011;5806;48.748;9.278;2023-04-29T02:14:59;35.03;;;25.77;;
11498;SDS011;5806;48.748;9.278;2023-04-29T02:17:26;40.67;;;26.87;;
11498;SDS011;5806;48.748;9.278;2023-04-29T02:19:54;40.00;;;27.67;;
11498;SDS011;5806;48.748;9.278;2023-04-29T02:22:22;45.50;;;29.00;;
11498;SDS011;5806;48.748;9.278;2023-04-29T02:24:49;47.90;;;30.10;;
11498;SDS011;5806;48.748;9.278;2023-04-29T02:27:16;49.53;;;31.93;;
11498;SDS011;5806;48.748;9.278;2023-04-29T02:29:51;47.70;;;31.30;;
11498;SDS011;5806;48.748;9.278;2023-04-29T02:32:19;49.77;;;32.13;;
11498;SDS011;5806;48.748;9.278;2023-04-29T02:34:46;50.03;;;32.80;;
11498;SDS011;5806;48.748;9.278;2023-04-29T02:37:14;54.47;;;33.47;;
11498;SDS011;5806;48.748;9.278;2023-04-29T02:39:41;56.00;;;34.37;;
11498;SDS011;5806;48.748;9.278;2023-04-29T02:42:09;49.50;;;33.20;;
11498;SDS011;5806;48.748;9.278;2023-04-29T02:44:36;56.27;;;34.77;;
11498;SDS011;5806;48.748;9.278;2023-04-29T02:47:04;52.13;;;33.77;;
11498;SDS011;5806;48.748;9.278;2023-04-29T02:49:32;51.30;;;32.37;;
11498;SDS011;5806;48.748;9.278;2023-04-29T02:51:59;50.70;;;32.70;;
11498;SDS011;5806;48.748;9.278;2023-04-29T02:54:27;54.83;;;33.83;;
11498;SDS011;5806;48.748;9.278;2023-04-29T02:56:54;54.77;;;33.03;;
11498;SDS011;5806;48.748;9.278;2023-04-29T02:59:23;53.13;;;33.30;;
11498;SDS011;5806;48.748;9.278;2023-04-29T03:01:51;50.40;;;33.03;;
11498;SDS011;5806;48.748;9.278;2023-04-29T03:04:19;53.97;;;33.20;;
11498;SDS011;5806;48.748;9.278;2023-04-29T03:06:47;51.50;;;32.90;;
11498;SDS011;5806;48.748;9.278;2023-04-29T03:09:15;56.17;;;34.20;;
11498;SDS011;5806;48.748;9.278;2023-04-29T03:11:42;55.37;;;34.20;;
11498;SDS011;5806;48.748;9.278;2023-04-29T03:14:10;57.67;;;34.77;;
11498;SDS011;5806;48.748;9.278;2023-04-29T03:16:38;55.93;;;35.00;;
11498;SDS011;5806;48.748;9.278;2023-04-29T03:19:05;59.83;;;35.97;;
11498;SDS011;5806;48.748;9.278;2023-04-29T03:21:33;63.07;;;36.97;;
11498;SDS011;5806;48.748;9.278;2023-04-29T03:24:01;64.30;;;37.60;;
11498;SDS011;5806;48.748;9.278;2023-04-29T03:26:28;61.90;;;37.20;;
11498;SDS011;5806;48.748;9.278;2023-04-29T03:28:56;59.80;;;36.60;;
11498;SDS011;5806;48.748;9.278;2023-04-29T03:31:24;62.30;;;37.87;;
11498;SDS011;5806;48.748;9.278;2023-04-29T03:33:51;62.03;;;37.83;;
11498;SDS011;5806;48.748;9.278;2023-04-29T03:36:19;62.20;;;38.80;;
11498;SDS011;5806;48.748;9.278;2023-04-29T03:38:47;67.97;;;38.10;;
11498;SDS011;5806;48.748;9.278;2023-04-29T03:41:14;69.03;;;39.47;;
11498;SDS011;5806;48.748;9.278;2023-04-29T03:43:42;67.03;;;38.93;;
11498;SDS011;5806;48.748;9.278;2023-04-29T03:46:10;67.80;;;38.53;;
11498;SDS011;5806;48.748;9.278;2023-04-29T03:48:37;60.57;;;34.90;;
11498;SDS011;5806;48.748;9.278;2023-04-29T03:51:05;61.77;;;33.50;;
11498;SDS011;5806;48.748;9.278;2023-04-29T03:53:33;60.93;;;33.53;;
11498;SDS011;5806;48.748;9.278;2023-04-29T03:56:02;59.90;;;33.13;;
11498;SDS011;5806;48.748;9.278;2023-04-29T03:58:30;60.90;;;31.33;;
11498;SDS011;5806;48.748;9.278;2023-04-29T04:00:57;54.67;;;31.33;;
11498;SDS011;5806;48.748;9.278;2023-04-29T04:03:25;58.77;;;32.70;;
11498;SDS011;5806;48.748;9.278;2023-04-29T04:05:53;53.90;;;31.40;;
11498;SDS011;5806;48.748;9.278;2023-04-29T04:08:20;58.70;;;32.43;;
11498;SDS011;5806;48.748;9.278;2023-04-29T04:10:48;63.13;;;32.57;;
11498;SDS011;5806;48.748;9.278;2023-04-29T04:13:15;59.60;;;32.00;;
11498;SDS011;5806;48.748;9.278;2023-04-29T04:15:48;57.50;;;30.97;;
11498;SDS011;5806;48.748;9.278;2023-04-29T04:18:16;52.47;;;28.90;;
11498;SDS011;5806;48.748;9.278;2023-04-29T04:20:44;58.20;;;30.00;;
11498;SDS011;5806;48.748;9.278;2023-04-29T04:23:12;51.97;;;28.60;;
11498;SDS011;5806;48.748;9.278;2023-04-29T04:25:46;55.73;;;29.20;;
11498;SDS011;5806;48.748;9.278;2023-04-29T04:28:14;53.93;;;28.70;;
11498;SDS011;5806;48.748;9.278;2023-04-29T04:30:41;49.47;;;27.93;;
11498;SDS011;5806;48.748;9.278;2023-04-29T04:33:12;50.90;;;27.57;;
11498;SDS011;5806;48.748;9.278;2023-04-29T04:35:40;52.17;;;27.87;;
11498;SDS011;5806;48.748;9.278;2023-04-29T04:38:10;50.37;;;27.93;;
11498;SDS011;5806;48.748;9.278;2023-04-29T04:40:41;49.50;;;28.77;;
11498;SDS011;5806;48.748;9.278;2023-04-29T04:43:09;49.40;;;28.57;;
11498;SDS011;5806;48.748;9.278;2023-04-29T04:45:36;53.17;;;28.87;;
11498;SDS011;5806;48.748;9.278;2023-04-29T04:48:04;53.53;;;29.27;;
11498;SDS011;5806;48.748;9.278;2023-04-29T04:50:32;49.60;;;29.40;;
11498;SDS011;5806;48.748;9.278;2023-04-29T04:52:59;47.53;;;27.87;;
11498;SDS011;5806;48.748;9.278;2023-04-29T04:55:28;43.20;;;25.87;;
11498;SDS011;5806;48.748;9.278;2023-04-29T04:57:56;48.77;;;29.13;;
11498;SDS011;5806;48.748;9.278;2023-04-29T05:00:24;47.43;;;27.67;;
11498;SDS011;5806;48.748;9.278;2023-04-29T05:02:52;45.80;;;27.40;;
11498;SDS011;5806;48.748;9.278;2023-04-29T05:05:19;49.40;;;27.70;;
11498;SDS011;5806;48.748;9.278;2023-04-29T05:07:47;43.37;;;26.27;;
11498;SDS011;5806;48.748;9.278;2023-04-29T05:10:14;47.40;;;27.63;;
11498;SDS011;5806;48.748;9.278;2023-04-29T05:12:42;52.70;;;28.63;;
11498;SDS011;5806;48.748;9.278;2023-04-29T05:15:09;44.53;;;26.13;;
11498;SDS011;5806;48.748;9.278;2023-04-29T05:17:39;41.87;;;24.97;;
11498;SDS011;5806;48.748;9.278;2023-04-29T05:20:06;43.17;;;26.47;;
11498;SDS011;5806;48.748;9.278;2023-04-29T05:22:34;41.17;;;25.13;;
11498;SDS011;5806;48.748;9.278;2023-04-29T05:25:02;43.93;;;24.13;;
11498;SDS011;5806;48.748;9.278;2023-04-29T05:27:30;37.57;;;23.53;;
11498;SDS011;5806;48.748;9.278;2023-04-29T05:29:57;40.83;;;23.43;;
11498;SDS011;5806;48.748;9.278;2023-04-29T05:32:25;34.43;;;22.00;;
11498;SDS011;5806;48.748;9.278;2023-04-29T05:34:53;37.83;;;23.07;;
11498;SDS011;5806;48.748;9.278;2023-04-29T05:37:21;39.13;;;23.77;;
11498;SDS011;5806;48.748;9.278;2023-04-29T05:39:48;34.43;;;21.37;;
11498;SDS011;5806;48.748;9.278;2023-04-29T05:42:16;35.40;;;22.80;;
11498;SDS011;5806;48.748;9.278;2023-04-29T05:44:43;38.33;;;22.37;;
11498;SDS011;5806;48.748;9.278;2023-04-29T05:47:11;37.30;;;21.73;;
11498;SDS011;5806;48.748;9.278;2023-04-29T05:49:39;37.50;;;23.00;;
11498;SDS011;5806;48.748;9.278;2023-04-29T05:52:06;33.07;;;20.77;;
11498;SDS011;5806;48.748;9.278;2023-04-29T05:54:34;37.30;;;22.30;;
11498;SDS011;5806;48.748;9.278;2023-04-29T05:57:01;33.77;;;20.73;;
11498;SDS011;5806;48.748;9.278;2023-04-29T05:59:29;31.00;;;19.43;;
11498;SDS011;5806;48.748;9.278;2023-04-29T06:01:58;31.87;;;19.17;;
11498;SDS011;5806;48.748;9.278;2023-04-29T06:04:26;30.07;;;18.07;;
11498;SDS011;5806;48.748;9.278;2023-04-29T06:06:54;28.27;;;17.30;;
11498;SDS011;5806;48.748;9.278;2023-04-29T06:09:22;25.60;;;16.73;;
11498;SDS011;5806;48.748;9.278;2023-04-29T06:11:50;27.27;;;17.67;;
11498;SDS011;5806;48.748;9.278;2023-04-29T06:14:18;25.90;;;17.33;;
11498;SDS011;5806;48.748;9.278;2023-04-29T06:16:46;26.70;;;17.47;;
11498;SDS011;5806;48.748;9.278;2023-04-29T06:19:14;23.30;;;16.20;;
11498;SDS011;5806;48.748;9.278;2023-04-29T06:21:41;23.00;;;16.37;;
11498;SDS011;5806;48.748;9.278;2023-04-29T06:24:09;25.50;;;16.80;;
11498;SDS011;5806;48.748;9.278;2023-04-29T06:26:37;22.53;;;15.37;;
11498;SDS011;5806;48.748;9.278;2023-04-29T06:29:04;23.70;;;16.27;;
11498;SDS011;5806;48.748;9.278;2023-04-29T06:31:32;23.63;;;16.43;;
11498;SDS011;5806;48.748;9.278;2023-04-29T06:33:59;23.97;;;16.70;;
11498;SDS011;5806;48.748;9.278;2023-04-29T06:36:27;23.80;;;16.83;;
11498;SDS011;5806;48.748;9.278;2023-04-29T06:38:54;26.50;;;16.93;;
11498;SDS011;5806;48.748;9.278;2023-04-29T06:41:22;21.40;;;15.37;;
11498;SDS011;5806;48.748;9.278;2023-04-29T06:43:50;25.33;;;17.53;;
11498;SDS011;5806;48.748;9.278;2023-04-29T06:46:19;27.07;;;17.20;;
11498;SDS011;5806;48.748;9.278;2023-04-29T06:48:46;26.37;;;18.27;;
11498;SDS011;5806;48.748;9.278;2023-04-29T06:51:14;27.90;;;18.23;;
11498;SDS011;5806;48.748;9.278;2023-04-29T06:53:41;26.83;;;18.53;;
11498;SDS011;5806;48.748;9.278;2023-04-29T06:56:09;25.23;;;17.80;;
11498;SDS011;5806;48.748;9.278;2023-04-29T06:58:36;27.33;;;19.67;;
11498;SDS011;5806;48.748;9.278;2023-04-29T07:01:04;27.13;;;18.53;;
11498;SDS011;5806;48.748;9.278;2023-04-29T07:03:33;27.07;;;18.67;;
11498;SDS011;5806;48.748;9.278;2023-04-29T07:06:00;29.10;;;19.83;;
11498;SDS011;5806;48.748;9.278;2023-04-29T07:08:27;28.20;;;19.97;;
11498;SDS011;5806;48.748;9.278;2023-04-29T07:10:55;26.83;;;18.83;;
11498;SDS011;5806;48.748;9.278;2023-04-29T07:13:23;27.90;;;19.23;;
11498;SDS011;5806;48.748;9.278;2023-04-29T07:15:51;27.40;;;19.60;;
11498;SDS011;5806;48.748;9.278;2023-04-29T07:18:19;27.43;;;19.70;;
11498;SDS011;5806;48.748;9.278;2023-04-29T07:20:46;25.40;;;19.20;;
11498;SDS011;5806;48.748;9.278;2023-04-29T07:23:15;30.10;;;20.37;;
11498;SDS011;5806;48.748;9.278;2023-04-29T07:25:43;27.83;;;19.63;;
11498;SDS011;5806;48.748;9.278;2023-04-29T07:28:10;29.37;;;21.00;;
11498;SDS011;5806;48.748;9.278;2023-04-29T07:30:38;27.10;;;20.97;;
11498;SDS011;5806;48.748;9.278;2023-04-29T07:33:06;26.03;;;20.13;;
11498;SDS011;5806;48.748;9.278;2023-04-29T07:35:34;27.60;;;20.97;;
11498;SDS011;5806;48.748;9.278;2023-04-29T07:38:02;32.20;;;24.10;;
11498;SDS011;5806;48.748;9.278;2023-04-29T07:40:29;31.97;;;24.80;;
11498;SDS011;5806;48.748;9.278;2023-04-29T07:42:57;33.60;;;25.03;;
11498;SDS011;5806;48.748;9.278;2023-04-29T07:45:26;31.20;;;24.23;;
11498;SDS011;5806;48.748;9.278;2023-04-29T07:47:56;31.73;;;25.07;;
11498;SDS011;5806;48.748;9.278;2023-04-29T07:50:24;35.43;;;27.27;;
11498;SDS011;5806;48.748;9.278;2023-04-29T07:52:52;31.93;;;24.77;;
11498;SDS011;5806;48.748;9.278;2023-04-29T07:55:21;32.00;;;22.43;;
11498;SDS011;5806;48.748;9.278;2023-04-29T07:57:51;30.13;;;23.63;;
11498;SDS011;5806;48.748;9.278;2023-04-29T08:00:18;30.03;;;22.70;;
11498;SDS011;5806;48.748;9.278;2023-04-29T08:02:49;30.50;;;22.43;;
11498;SDS011;5806;48.748;9.278;2023-04-29T08:05:18;32.67;;;21.90;;
11498;SDS011;5806;48.748;9.278;2023-04-29T08:07:51;31.37;;;23.07;;
11498;SDS011;5806;48.748;9.278;2023-04-29T08:10:15;28.37;;;21.93;;
11498;SDS011;5806;48.748;9.278;2023-04-29T08:12:44;30.97;;;22.53;;
11498;SDS011;5806;48.748;9.278;2023-04-29T08:15:12;29.90;;;21.83;;
11498;SDS011;5806;48.748;9.278;2023-04-29T08:17:44;30.23;;;21.73;;
11498;SDS011;5806;48.748;9.278;2023-04-29T08:20:12;29.43;;;22.90;;
11498;SDS011;5806;48.748;9.278;2023-04-29T08:22:39;30.03;;;22.03;;
11498;SDS011;5806;48.748;9.278;2023-04-29T08:25:07;31.27;;;22.50;;
11498;SDS011;5806;48.748;9.278;2023-04-29T08:27:35;32.77;;;22.97;;
11498;SDS011;5806;48.748;9.278;2023-04-29T08:30:02;31.57;;;23.20;;
11498;SDS011;5806;48.748;9.278;2023-04-29T08:32:30;35.03;;;23.97;;
11498;SDS011;5806;48.748;9.278;2023-04-29T08:34:59;29.93;;;22.17;;
11498;SDS011;5806;48.748;9.278;2023-04-29T08:37:27;29.50;;;20.90;;
11498;SDS011;5806;48.748;9.278;2023-04-29T08:39:55;26.40;;;20.63;;
11498;SDS011;5806;48.748;9.278;2023-04-29T08:42:29;26.40;;;18.87;;
11498;SDS011;5806;48.748;9.278;2023-04-29T08:44:56;27.23;;;19.67;;
11498;SDS011;5806;48.748;9.278;2023-04-29T08:47:26;24.17;;;17.13;;
11498;SDS011;5806;48.748;9.278;2023-04-29T08:50:02;28.93;;;18.43;;
11498;SDS011;5806;48.748;9.278;2023-04-29T08:52:36;23.47;;;18.43;;
11498;SDS011;5806;48.748;9.278;2023-04-29T08:55:00;23.37;;;17.70;;
11498;SDS011;5806;48.748;9.278;2023-04-29T08:57:29;24.20;;;17.97;;
11498;SDS011;5806;48.748;9.278;2023-04-29T09:00:02;22.57;;;17.10;;
11498;SDS011;5806;48.748;9.278;2023-04-29T09:02:30;22.53;;;17.03;;
11498;SDS011;5806;48.748;9.278;2023-04-29T09:05:04;20.07;;;16.10;;
11498;SDS011;5806;48.748;9.278;2023-04-29T09:07:38;25.67;;;17.53;;
11498;SDS011;5806;48.748;9.278;2023-04-29T09:10:07;22.57;;;16.63;;
11498;SDS011;5806;48.748;9.278;2023-04-29T09:12:36;22.60;;;17.03;;
11498;SDS011;5806;48.748;9.278;2023-04-29T09:15:03;21.37;;;16.80;;
11498;SDS011;5806;48.748;9.278;2023-04-29T09:17:41;24.97;;;17.17;;
11498;SDS011;5806;48.748;9.278;2023-04-29T09:20:24;24.77;;;18.23;;
11498;SDS011;5806;48.748;9.278;2023-04-29T09:22:59;26.67;;;19.27;;
11498;SDS011;5806;48.748;9.278;2023-04-29T09:25:29;25.77;;;18.60;;
11498;SDS011;5806;48.748;9.278;2023-04-29T09:27:57;27.60;;;19.97;;
11498;SDS011;5806;48.748;9.278;2023-04-29T09:30:24;25.80;;;19.20;;
11498;SDS011;5806;48.748;9.278;2023-04-29T09:33:07;25.60;;;18.13;;
11498;SDS011;5806;48.748;9.278;2023-04-29T09:35:35;52.37;;;22.13;;
11498;SDS011;5806;48.748;9.278;2023-04-29T09:38:12;24.63;;;18.53;;
11498;SDS011;5806;48.748;9.278;2023-04-29T09:40:41;26.17;;;19.87;;
11498;SDS011;5806;48.748;9.278;2023-04-29T09:43:17;26.73;;;19.73;;
11498;SDS011;5806;48.748;9.278;2023-04-29T09:45:43;25.77;;;19.93;;
11498;SDS011;5806;48.748;9.278;2023-04-29T09:48:13;28.07;;;20.73;;
11498;SDS011;5806;48.748;9.278;2023-04-29T09:50:42;29.60;;;21.87;;
11498;SDS011;5806;48.748;9.278;2023-04-29T09:53:11;31.77;;;22.00;;
11498;SDS011;5806;48.748;9.278;2023-04-29T09:55:58;32.13;;;22.37;;
11498;SDS011;5806;48.748;9.278;2023-04-29T09:58:30;34.37;;;24.07;;
11498;SDS011;5806;48.748;9.278;2023-04-29T10:01:01;32.53;;;24.23;;
11498;SDS011;5806;48.748;9.278;2023-04-29T10:03:30;32.57;;;24.50;;
11498;SDS011;5806;48.748;9.278;2023-04-29T10:06:00;32.37;;;24.33;;
11498;SDS011;5806;48.748;9.278;2023-04-29T10:08:29;31.83;;;24.50;;
11498;SDS011;5806;48.748;9.278;2023-04-29T10:10:58;31.30;;;24.20;;
11498;SDS011;5806;48.748;9.278;2023-04-29T10:13:27;33.40;;;24.80;;
11498;SDS011;5806;48.748;9.278;2023-04-29T10:15:57;34.27;;;25.23;;
11498;SDS011;5806;48.748;9.278;2023-04-29T10:18:39;30.80;;;23.73;;
11498;SDS011;5806;48.748;9.278;2023-04-29T10:21:09;35.53;;;25.77;;
11498;SDS011;5806;48.748;9.278;2023-04-29T10:23:39;36.00;;;26.00;;
11498;SDS011;5806;48.748;9.278;2023-04-29T10:26:10;39.73;;;28.97;;
11498;SDS011;5806;48.748;9.278;2023-04-29T10:28:39;46.13;;;33.37;;
11498;SDS011;5806;48.748;9.278;2023-04-29T10:31:09;46.43;;;34.87;;
11498;SDS011;5806;48.748;9.278;2023-04-29T10:33:41;50.00;;;34.87;;
11498;SDS011;5806;48.748;9.278;2023-04-29T10:36:13;51.87;;;37.23;;
11498;SDS011;5806;48.748;9.278;2023-04-29T10:38:43;51.63;;;36.63;;
11498;SDS011;5806;48.748;9.278;2023-04-29T10:41:25;50.17;;;36.20;;
11498;SDS011;5806;48.748;9.278;2023-04-29T10:43:54;50.60;;;36.57;;
11498;SDS011;5806;48.748;9.278;2023-04-29T10:46:26;51.20;;;35.47;;
11498;SDS011;5806;48.748;9.278;2023-04-29T10:49:00;51.70;;;37.07;;
11498;SDS011;5806;48.748;9.278;2023-04-29T10:54:02;55.47;;;39.73;;
11498;SDS011;5806;48.748;9.278;2023-04-29T10:56:43;56.83;;;37.30;;
11498;SDS011;5806;48.748;9.278;2023-04-29T10:59:11;51.97;;;37.50;;
11498;SDS011;5806;48.748;9.278;2023-04-29T11:01:45;58.13;;;40.00;;
11498;SDS011;5806;48.748;9.278;2023-04-29T11:04:09;57.83;;;39.67;;
11498;SDS011;5806;48.748;9.278;2023-04-29T11:06:38;58.40;;;37.30;;
11498;SDS011;5806;48.748;9.278;2023-04-29T11:09:10;52.60;;;35.80;;
11498;SDS011;5806;48.748;9.278;2023-04-29T11:14:26;56.87;;;38.10;;
11498;SDS011;5806;48.748;9.278;2023-04-29T11:17:02;57.87;;;37.97;;
11498;SDS011;5806;48.748;9.278;2023-04-29T11:19:49;48.43;;;31.53;;
11498;SDS011;5806;48.748;9.278;2023-04-29T11:24:56;46.70;;;29.13;;
11498;SDS011;5806;48.748;9.278;2023-04-29T11:27:22;47.23;;;30.60;;
11498;SDS011;5806;48.748;9.278;2023-04-29T11:29:51;52.57;;;32.40;;
11498;SDS011;5806;48.748;9.278;2023-04-29T11:32:23;49.37;;;30.70;;
11498;SDS011;5806;48.748;9.278;2023-04-29T11:35:05;59.13;;;35.67;;
11498;SDS011;5806;48.748;9.278;2023-04-29T11:37:34;52.40;;;34.70;;
11498;SDS011;5806;48.748;9.278;2023-04-29T11:40:03;50.87;;;33.30;;
11498;SDS011;5806;48.748;9.278;2023-04-29T11:42:35;48.57;;;31.77;;
11498;SDS011;5806;48.748;9.278;2023-04-29T11:45:07;44.47;;;29.40;;
11498;SDS011;5806;48.748;9.278;2023-04-29T11:47:35;43.70;;;28.73;;
11498;SDS011;5806;48.748;9.278;2023-04-29T11:50:06;36.30;;;25.27;;
11498;SDS011;5806;48.748;9.278;2023-04-29T11:52:35;36.27;;;23.20;;
11498;SDS011;5806;48.748;9.278;2023-04-29T11:55:05;38.13;;;24.60;;
11498;SDS011;5806;48.748;9.278;2023-04-29T11:57:37;37.97;;;25.00;;
11498;SDS011;5806;48.748;9.278;2023-04-29T12:00:09;39.40;;;26.00;;
11498;SDS011;5806;48.748;9.278;2023-04-29T12:02:37;40.77;;;26.07;;
11498;SDS011;5806;48.748;9.278;2023-04-29T12:05:05;38.70;;;26.53;;
11498;SDS011;5806;48.748;9.278;2023-04-29T12:07:34;37.20;;;26.07;;
11498;SDS011;5806;48.748;9.278;2023-04-29T12:10:02;43.47;;;27.07;;
11498;SDS011;5806;48.748;9.278;2023-04-29T12:12:31;46.50;;;28.97;;
11498;SDS011;5806;48.748;9.278;2023-04-29T12:15:06;46.43;;;28.93;;
11498;SDS011;5806;48.748;9.278;2023-04-29T12:17:30;47.77;;;30.23;;
11498;SDS011;5806;48.748;9.278;2023-04-29T12:19:58;46.57;;;29.87;;
11498;SDS011;5806;48.748;9.278;2023-04-29T12:22:32;47.30;;;31.30;;
11498;SDS011;5806;48.748;9.278;2023-04-29T12:25:02;52.50;;;32.50;;
11498;SDS011;5806;48.748;9.278;2023-04-29T12:27:29;49.80;;;30.73;;
11498;SDS011;5806;48.748;9.278;2023-04-29T12:29:59;49.07;;;31.67;;
11498;SDS011;5806;48.748;9.278;2023-04-29T12:32:26;49.17;;;30.63;;
11498;SDS011;5806;48.748;9.278;2023-04-29T12:34:53;48.53;;;30.10;;
11498;SDS011;5806;48.748;9.278;2023-04-29T12:37:21;48.00;;;30.03;;
11498;SDS011;5806;48.748;9.278;2023-04-29T12:39:49;46.90;;;30.33;;
11498;SDS011;5806;48.748;9.278;2023-04-29T12:42:17;46.73;;;31.13;;
11498;SDS011;5806;48.748;9.278;2023-04-29T12:44:45;46.90;;;31.80;;
11498;SDS011;5806;48.748;9.278;2023-04-29T12:47:13;49.93;;;30.77;;
11498;SDS011;5806;48.748;9.278;2023-04-29T12:49:42;45.60;;;29.57;;
11498;SDS011;5806;48.748;9.278;2023-04-29T12:52:11;49.57;;;31.10;;
11498;SDS011;5806;48.748;9.278;2023-04-29T12:54:39;47.40;;;30.30;;
11498;SDS011;5806;48.748;9.278;2023-04-29T12:57:13;45.77;;;30.33;;
11498;SDS011;5806;48.748;9.278;2023-04-29T12:59:38;50.03;;;31.10;;
11498;SDS011;5806;48.748;9.278;2023-04-29T13:02:06;41.57;;;29.17;;
11498;SDS011;5806;48.748;9.278;2023-04-29T13:04:33;44.50;;;29.37;;
11498;SDS011;5806;48.748;9.278;2023-04-29T13:07:01;44.53;;;28.17;;
11498;SDS011;5806;48.748;9.278;2023-04-29T13:09:29;42.57;;;29.43;;
11498;SDS011;5806;48.748;9.278;2023-04-29T13:11:56;41.13;;;27.10;;
11498;SDS011;5806;48.748;9.278;2023-04-29T13:14:24;40.10;;;26.27;;
11498;SDS011;5806;48.748;9.278;2023-04-29T13:16:52;41.90;;;28.47;;
11498;SDS011;5806;48.748;9.278;2023-04-29T13:19:19;43.03;;;27.70;;
11498;SDS011;5806;48.748;9.278;2023-04-29T13:21:46;39.87;;;25.93;;
11498;SDS011;5806;48.748;9.278;2023-04-29T13:24:15;40.80;;;26.63;;
11498;SDS011;5806;48.748;9.278;2023-04-29T13:26:44;37.63;;;25.73;;
11498;SDS011;5806;48.748;9.278;2023-04-29T13:29:12;41.17;;;27.47;;
11498;SDS011;5806;48.748;9.278;2023-04-29T13:31:40;37.03;;;25.90;;
11498;SDS011;5806;48.748;9.278;2023-04-29T13:34:08;42.40;;;26.33;;
11498;SDS011;5806;48.748;9.278;2023-04-29T13:36:36;40.70;;;26.57;;
11498;SDS011;5806;48.748;9.278;2023-04-29T13:39:03;35.80;;;25.57;;
11498;SDS011;5806;48.748;9.278;2023-04-29T13:41:30;37.97;;;26.73;;
11498;SDS011;5806;48.748;9.278;2023-04-29T13:43:59;41.23;;;27.57;;
11498;SDS011;5806;48.748;9.278;2023-04-29T13:46:26;42.53;;;27.60;;
11498;SDS011;5806;48.748;9.278;2023-04-29T13:48:54;39.47;;;25.33;;
11498;SDS011;5806;48.748;9.278;2023-04-29T13:51:21;37.00;;;25.20;;
11498;SDS011;5806;48.748;9.278;2023-04-29T13:53:49;39.27;;;25.33;;
11498;SDS011;5806;48.748;9.278;2023-04-29T13:56:16;34.17;;;23.93;;
11498;SDS011;5806;48.748;9.278;2023-04-29T13:58:44;35.57;;;24.00;;
11498;SDS011;5806;48.748;9.278;2023-04-29T14:01:11;35.93;;;23.63;;
11498;SDS011;5806;48.748;9.278;2023-04-29T14:03:39;31.43;;;22.23;;
11498;SDS011;5806;48.748;9.278;2023-04-29T14:06:06;34.47;;;23.77;;
11498;SDS011;5806;48.748;9.278;2023-04-29T14:08:34;30.70;;;22.60;;
11498;SDS011;5806;48.748;9.278;2023-04-29T14:11:01;33.07;;;22.77;;
11498;SDS011;5806;48.748;9.278;2023-04-29T14:13:29;35.07;;;24.47;;
11498;SDS011;5806;48.748;9.278;2023-04-29T14:15:57;33.07;;;22.83;;
11498;SDS011;5806;48.748;9.278;2023-04-29T14:18:26;36.20;;;24.10;;
11498;SDS011;5806;48.748;9.278;2023-04-29T14:20:55;32.37;;;22.37;;
11498;SDS011;5806;48.748;9.278;2023-04-29T14:23:24;31.93;;;22.00;;
11498;SDS011;5806;48.748;9.278;2023-04-29T14:25:51;30.20;;;21.20;;
11498;SDS011;5806;48.748;9.278;2023-04-29T14:28:19;33.97;;;22.70;;
11498;SDS011;5806;48.748;9.278;2023-04-29T14:30:46;33.03;;;21.40;;
11498;SDS011;5806;48.748;9.278;2023-04-29T14:33:13;30.93;;;21.37;;
11498;SDS011;5806;48.748;9.278;2023-04-29T14:35:41;31.10;;;21.10;;
11498;SDS011;5806;48.748;9.278;2023-04-29T14:38:08;28.23;;;20.43;;
11498;SDS011;5806;48.748;9.278;2023-04-29T14:40:36;28.57;;;20.33;;
11498;SDS011;5806;48.748;9.278;2023-04-29T14:43:03;28.83;;;20.53;;
11498;SDS011;5806;48.748;9.278;2023-04-29T14:45:31;27.73;;;21.03;;
11498;SDS011;5806;48.748;9.278;2023-04-29T14:47:58;28.50;;;20.00;;
11498;SDS011;5806;48.748;9.278;2023-04-29T14:50:26;28.67;;;21.00;;
11498;SDS011;5806;48.748;9.278;2023-04-29T14:52:53;26.13;;;19.93;;
11498;SDS011;5806;48.748;9.278;2023-04-29T14:55:22;25.00;;;19.77;;
11498;SDS011;5806;48.748;9.278;2023-04-29T14:57:49;24.80;;;19.60;;
11498;SDS011;5806;48.748;9.278;2023-04-29T15:00:17;29.40;;;20.53;;
11498;SDS011;5806;48.748;9.278;2023-04-29T15:02:45;28.27;;;19.03;;
11498;SDS011;5806;48.748;9.278;2023-04-29T15:05:15;25.40;;;18.83;;